Time;durP1;ratioP1;P1;durP2;ratioP2;P2;SDS_P1;SDS_P2;PMS_P1;PMS_P2;Temp;Humidity;BMP_temperature;BMP_pressure;BME280_temperature;BME280_humidity;BME280_pressure;Samples;Min_cycle;Max_cycle;Signal;HPM_P1;HPM_P2
2023/12/19 00:01:32;;;;;;;81.03;38.95;;;9.50;99.90;;;;;;4997278;28;20042;-62
2023/12/19 00:03:58;;;;;;;74.30;37.45;;;9.60;99.90;;;;;;4998851;28;20427;-62
2023/12/19 00:06:24;;;;;;;82.20;39.55;;;9.50;99.90;;;;;;4991569;28;20038;-62
2023/12/19 00:08:49;;;;;;;74.78;38.00;;;9.50;99.90;;;;;;4997052;28;20050;-62
2023/12/19 00:11:15;;;;;;;75.15;37.72;;;9.50;99.90;;;;;;4999953;28;20116;-62
2023/12/19 00:13:41;;;;;;;70.72;36.40;;;9.50;99.90;;;;;;4990344;28;20041;-62
2023/12/19 00:16:06;;;;;;;67.78;36.75;;;9.50;99.90;;;;;;5000980;28;20053;-62
2023/12/19 00:18:32;;;;;;;70.13;36.20;;;9.50;99.90;;;;;;4995917;28;21119;-62
2023/12/19 00:20:58;;;;;;;71.32;36.72;;;9.50;99.90;;;;;;5001940;28;20046;-62
2023/12/19 00:23:24;;;;;;;72.43;37.13;;;9.50;99.90;;;;;;5007184;28;20030;-62
2023/12/19 00:25:49;;;;;;;68.93;34.60;;;9.40;99.90;;;;;;5000892;28;20050;-62
2023/12/19 00:28:15;;;;;;;75.78;36.95;;;9.40;99.90;;;;;;4997653;28;20049;-62
2023/12/19 00:30:41;;;;;;;68.20;36.92;;;9.40;99.90;;;;;;4982279;28;20046;-62
2023/12/19 00:33:06;;;;;;;73.25;37.67;;;9.30;99.90;;;;;;4989164;28;20046;-62
2023/12/19 00:35:33;;;;;;;67.85;36.75;;;9.30;99.90;;;;;;4996148;28;20038;-62
2023/12/19 00:38:02;;;;;;;70.97;37.35;;;9.20;99.90;;;;;;4980013;28;20046;-62
2023/12/19 00:40:28;;;;;;;67.20;37.25;;;9.30;99.90;;;;;;4999496;28;20034;-62
2023/12/19 00:42:54;;;;;;;70.85;37.55;;;9.20;99.90;;;;;;4997931;28;20056;-62
2023/12/19 00:45:19;;;;;;;67.22;35.05;;;9.20;99.90;;;;;;4995166;28;20128;-62
2023/12/19 00:51:45;;;;;;;65.47;35.13;;;9.20;99.90;;;;;;4998621;28;20122;-62
2023/12/19 00:54:18;;;;;;;70.47;35.28;;;9.20;99.90;;;;;;4979302;28;20049;-62
2023/12/19 00:57:01;;;;;;;63.83;35.03;;;9.30;99.90;;;;;;4988080;28;20406;-62
2023/12/19 00:59:27;;;;;;;63.38;32.88;;;9.30;99.90;;;;;;5001299;28;20038;-63
2023/12/19 01:01:53;;;;;;;61.58;33.03;;;9.20;99.90;;;;;;4992171;28;20078;-62
2023/12/19 01:04:19;;;;;;;60.53;33.83;;;9.20;99.90;;;;;;4999404;28;20255;-62
2023/12/19 01:06:45;;;;;;;54.85;31.95;;;9.20;99.90;;;;;;4984351;28;20177;-62
2023/12/19 01:09:11;;;;;;;54.35;31.35;;;9.20;99.90;;;;;;5016798;28;20132;-62
2023/12/19 01:11:37;;;;;;;59.35;32.20;;;9.20;99.90;;;;;;4996507;28;20042;-62
2023/12/19 01:14:03;;;;;;;55.30;30.35;;;9.10;99.90;;;;;;4998189;28;20053;-62
2023/12/19 01:16:28;;;;;;;51.55;29.38;;;9.20;99.90;;;;;;4997592;28;20121;-62
2023/12/19 01:18:55;;;;;;;59.60;31.42;;;9.20;99.90;;;;;;4997634;28;20042;-62
2023/12/19 01:21:20;;;;;;;53.15;29.73;;;9.20;99.90;;;;;;5001185;28;20068;-62
2023/12/19 01:23:46;;;;;;;52.10;29.55;;;9.20;99.90;;;;;;4998228;28;20077;-62
2023/12/19 01:26:12;;;;;;;48.65;28.95;;;9.20;99.90;;;;;;5001507;28;20045;-62
2023/12/19 01:28:39;;;;;;;57.75;30.65;;;9.10;99.90;;;;;;4995600;28;20038;-62
2023/12/19 01:31:05;;;;;;;52.38;29.48;;;9.10;99.90;;;;;;5005438;28;20068;-62
2023/12/19 01:33:30;;;;;;;48.33;28.77;;;9.10;99.90;;;;;;4984884;28;20046;-62
2023/12/19 01:35:56;;;;;;;51.22;28.88;;;9.00;99.90;;;;;;4977413;28;20490;-62
2023/12/19 01:38:22;;;;;;;48.63;28.65;;;9.00;99.90;;;;;;4980392;28;20089;-62
2023/12/19 01:40:48;;;;;;;45.10;26.90;;;8.90;99.90;;;;;;4995026;28;20050;-62
2023/12/19 01:43:21;;;;;;;43.42;25.58;;;8.90;99.90;;;;;;4987290;28;20585;-62
2023/12/19 01:45:48;;;;;;;44.20;25.35;;;8.90;99.90;;;;;;4998240;28;20153;-62
2023/12/19 01:48:15;;;;;;;39.67;24.95;;;9.00;99.90;;;;;;5015268;28;20037;-61
2023/12/19 01:50:42;;;;;;;41.17;25.08;;;8.90;99.90;;;;;;5004007;28;20592;-62
2023/12/19 01:53:08;;;;;;;40.65;25.65;;;8.90;99.90;;;;;;4997663;28;20103;-62
2023/12/19 01:55:34;;;;;;;45.28;25.60;;;8.80;99.90;;;;;;4991559;28;20057;-62
2023/12/19 01:58:00;;;;;;;40.25;25.25;;;8.90;99.90;;;;;;4966115;28;20108;-62
2023/12/19 02:00:26;;;;;;;42.75;25.48;;;8.90;99.90;;;;;;4997094;28;20042;-62
2023/12/19 02:02:52;;;;;;;40.58;25.27;;;8.90;99.90;;;;;;4994769;28;20177;-62
2023/12/19 02:05:19;;;;;;;46.80;27.15;;;8.80;99.90;;;;;;4994938;28;20103;-62
2023/12/19 02:07:45;;;;;;;44.58;26.65;;;8.80;99.90;;;;;;4998355;28;20038;-62
2023/12/19 02:10:11;;;;;;;42.72;26.38;;;8.80;99.90;;;;;;4998143;28;20045;-62
2023/12/19 02:12:38;;;;;;;43.85;26.58;;;8.80;99.90;;;;;;4992819;28;20045;-62
2023/12/19 02:15:05;;;;;;;41.60;25.42;;;8.80;99.90;;;;;;4979066;28;20049;-62
2023/12/19 02:17:31;;;;;;;45.22;26.17;;;8.90;99.90;;;;;;4999385;28;20046;-62
2023/12/19 02:19:56;;;;;;;43.83;25.35;;;8.80;99.90;;;;;;4979165;28;20053;-62
2023/12/19 02:22:22;;;;;;;45.25;25.08;;;8.90;99.90;;;;;;4995595;28;20038;-62
2023/12/19 02:24:48;;;;;;;41.47;24.88;;;8.90;99.90;;;;;;4997886;28;20063;-61
2023/12/19 02:27:16;;;;;;;42.08;24.23;;;8.90;99.90;;;;;;5003190;28;20045;-62
2023/12/19 02:29:42;;;;;;;41.30;25.25;;;8.80;99.90;;;;;;4993801;28;20049;-61
2023/12/19 02:32:08;;;;;;;42.10;24.75;;;8.90;99.90;;;;;;5016649;28;20046;-62
2023/12/19 02:34:33;;;;;;;37.42;23.00;;;8.80;99.90;;;;;;5001496;28;20046;-62
2023/12/19 02:36:59;;;;;;;40.33;23.08;;;8.80;99.90;;;;;;5000906;28;20480;-62
2023/12/19 02:39:25;;;;;;;41.45;23.60;;;8.80;99.90;;;;;;4998585;28;20076;-61
2023/12/19 02:41:50;;;;;;;39.55;24.25;;;8.80;99.90;;;;;;4998447;28;20045;-62
2023/12/19 02:44:16;;;;;;;42.72;23.17;;;8.80;99.90;;;;;;4993399;28;20113;-62
2023/12/19 02:46:42;;;;;;;34.05;22.80;;;8.70;99.90;;;;;;4994812;28;20057;-62
2023/12/19 02:49:08;;;;;;;42.47;22.73;;;8.70;99.90;;;;;;4993848;28;20042;-62
2023/12/19 02:51:33;;;;;;;41.95;23.95;;;8.70;99.90;;;;;;4995707;28;20088;-62
2023/12/19 02:53:59;;;;;;;39.70;24.08;;;8.70;99.90;;;;;;4993337;28;20026;-62
2023/12/19 02:56:25;;;;;;;44.47;25.73;;;8.70;99.90;;;;;;5000337;28;20046;-62
2023/12/19 02:58:51;;;;;;;43.28;24.95;;;8.70;99.90;;;;;;4979500;28;20482;-62
2023/12/19 03:01:17;;;;;;;39.88;23.02;;;8.70;99.90;;;;;;4995207;28;20042;-62
2023/12/19 03:03:43;;;;;;;42.03;23.98;;;8.70;99.90;;;;;;4998435;28;20053;-62
2023/12/19 03:06:12;;;;;;;42.08;24.17;;;8.70;99.90;;;;;;4995017;28;20049;-62
2023/12/19 03:08:38;;;;;;;40.17;22.95;;;8.70;99.90;;;;;;5000266;28;20128;-62
2023/12/19 03:11:04;;;;;;;46.15;24.52;;;8.70;99.90;;;;;;4996848;28;20074;-62
2023/12/19 03:13:29;;;;;;;42.38;23.88;;;8.70;99.90;;;;;;4978378;28;20576;-62
2023/12/19 03:15:55;;;;;;;41.35;23.25;;;8.70;99.90;;;;;;4982352;28;20034;-62
2023/12/19 03:18:24;;;;;;;40.15;23.90;;;8.70;99.90;;;;;;4995552;28;20042;-62
2023/12/19 03:20:54;;;;;;;37.03;22.30;;;8.70;99.90;;;;;;4996441;28;20097;-62
2023/12/19 03:23:21;;;;;;;36.15;22.65;;;8.70;99.90;;;;;;4990956;28;20041;-62
2023/12/19 03:25:47;;;;;;;37.38;22.75;;;8.70;99.90;;;;;;4982526;28;20137;-62
2023/12/19 03:28:12;;;;;;;45.13;24.10;;;8.70;99.90;;;;;;4987319;28;20120;-62
2023/12/19 03:30:38;;;;;;;40.92;24.33;;;8.70;99.90;;;;;;4998461;28;20095;-62
2023/12/19 03:33:04;;;;;;;44.40;25.58;;;8.70;99.90;;;;;;4995531;28;20837;-63
2023/12/19 03:35:30;;;;;;;43.65;24.08;;;8.70;99.90;;;;;;4993213;28;20046;-62
2023/12/19 03:37:56;;;;;;;43.08;24.58;;;8.70;99.90;;;;;;4985244;28;20445;-62
2023/12/19 03:40:22;;;;;;;41.17;24.50;;;8.70;99.90;;;;;;4998887;28;20034;-63
2023/12/19 03:42:48;;;;;;;39.58;23.30;;;8.70;99.90;;;;;;4995229;28;20034;-62
2023/12/19 03:45:14;;;;;;;41.33;23.88;;;8.70;99.90;;;;;;5001459;28;20049;-62
2023/12/19 03:47:39;;;;;;;40.35;23.88;;;8.70;99.90;;;;;;4997495;28;20053;-62
2023/12/19 03:50:06;;;;;;;40.38;24.10;;;8.70;99.90;;;;;;4996968;28;20034;-63
2023/12/19 03:52:32;;;;;;;37.35;22.05;;;8.70;99.90;;;;;;4980754;28;20413;-62
2023/12/19 03:54:58;;;;;;;34.55;21.15;;;8.70;99.90;;;;;;4995472;28;20042;-63
2023/12/19 03:57:23;;;;;;;34.25;21.35;;;8.80;99.90;;;;;;5000706;28;20562;-62
2023/12/19 03:59:49;;;;;;;32.65;20.25;;;8.70;99.90;;;;;;4991916;28;20054;-61
2023/12/19 04:02:15;;;;;;;31.30;20.88;;;8.70;99.90;;;;;;4976864;28;20141;-61
2023/12/19 06:25:09;;;;;;;27.77;17.20;;;9.40;99.90;;;;;;5118993;27;21074;-62
2023/12/19 06:27:35;;;;;;;21.27;14.88;;;9.70;99.90;;;;;;5093123;28;20080;-59
2023/12/19 06:30:05;;;;;;;28.17;16.73;;;9.60;99.90;;;;;;5081159;28;20044;-59
2023/12/19 06:32:31;;;;;;;26.30;16.20;;;9.50;99.90;;;;;;5097573;28;20032;-60
2023/12/19 06:34:57;;;;;;;25.45;16.20;;;9.50;99.90;;;;;;5087899;28;20632;-59
2023/12/19 06:37:23;;;;;;;24.33;15.85;;;9.50;99.90;;;;;;5074321;28;20033;-59
2023/12/19 06:39:49;;;;;;;25.35;15.90;;;9.50;99.90;;;;;;5099103;28;20050;-59
2023/12/19 06:42:14;;;;;;;27.52;16.17;;;9.50;99.90;;;;;;5098151;28;20044;-59
2023/12/19 06:44:40;;;;;;;23.30;14.70;;;9.50;99.90;;;;;;5079900;28;20658;-59
2023/12/19 06:47:06;;;;;;;24.95;15.90;;;9.50;99.90;;;;;;5090076;28;20100;-60
2023/12/19 06:49:32;;;;;;;23.92;14.63;;;9.50;99.90;;;;;;5093085;28;20040;-58
2023/12/19 06:51:58;;;;;;;20.50;13.32;;;9.50;99.90;;;;;;5094045;28;20131;-59
2023/12/19 06:54:23;;;;;;;20.08;12.60;;;9.50;99.90;;;;;;5092896;28;20154;-59
2023/12/19 06:56:50;;;;;;;23.17;13.82;;;9.50;99.90;;;;;;5081976;28;20039;-59
2023/12/19 06:59:15;;;;;;;20.27;12.13;;;9.50;99.90;;;;;;5093121;28;20093;-59
2023/12/19 07:01:42;;;;;;;20.15;12.85;;;9.50;99.90;;;;;;5093085;28;20070;-59
2023/12/19 07:04:08;;;;;;;21.27;12.63;;;9.50;99.90;;;;;;5094972;28;20578;-60
2023/12/19 07:06:33;;;;;;;21.63;13.00;;;9.50;99.90;;;;;;5096488;28;20130;-59
2023/12/19 07:09:00;;;;;;;22.42;13.57;;;9.60;99.90;;;;;;5090556;28;20413;-59
2023/12/19 07:11:26;;;;;;;21.00;12.88;;;9.50;99.90;;;;;;5094585;28;20093;-59
2023/12/19 07:13:52;;;;;;;19.73;12.15;;;9.50;99.90;;;;;;5093030;28;20051;-59
2023/12/19 07:16:19;;;;;;;20.13;11.57;;;9.60;99.90;;;;;;5088835;28;20047;-59
2023/12/19 07:18:46;;;;;;;18.77;11.40;;;9.60;99.90;;;;;;5077389;28;20142;-60
2023/12/19 07:21:22;;;;;;;18.00;11.70;;;9.60;99.90;;;;;;5092661;28;20529;-59
2023/12/19 07:23:53;;;;;;;19.52;11.75;;;9.60;99.90;;;;;;5094626;28;20040;-60
2023/12/19 07:26:23;;;;;;;21.05;12.60;;;9.60;99.90;;;;;;5079334;28;20524;-59
2023/12/19 07:28:52;;;;;;;20.30;12.55;;;9.60;99.90;;;;;;5066649;28;20507;-59
2023/12/19 07:31:29;;;;;;;16.23;10.90;;;9.60;99.90;;;;;;5066315;28;20069;-59
2023/12/19 07:33:59;;;;;;;19.17;10.77;;;9.60;99.90;;;;;;5080816;28;20055;-60
2023/12/19 07:36:26;;;;;;;14.32;9.23;;;9.70;99.90;;;;;;5078240;28;20098;-60
2023/12/19 07:38:52;;;;;;;15.55;10.18;;;9.70;99.90;;;;;;5079672;28;20261;-59
2023/12/19 07:41:19;;;;;;;14.73;9.90;;;9.70;99.90;;;;;;5062192;28;20530;-62
2023/12/19 07:43:45;;;;;;;14.63;9.93;;;9.70;99.90;;;;;;5079762;28;20444;-60
2023/12/19 07:46:11;;;;;;;17.17;10.40;;;9.70;99.90;;;;;;5079643;28;20048;-59
2023/12/19 07:48:37;;;;;;;15.90;10.65;;;9.70;99.90;;;;;;5081641;28;20442;-59
2023/12/19 07:51:03;;;;;;;16.80;10.02;;;9.70;99.90;;;;;;5077631;28;20040;-59
2023/12/19 07:53:29;;;;;;;14.85;10.23;;;9.70;99.90;;;;;;5077184;28;20044;-59
2023/12/19 07:56:04;;;;;;;17.38;10.75;;;9.80;99.90;;;;;;5061334;28;20048;-59
2023/12/19 07:58:31;;;;;;;18.13;11.20;;;9.80;99.90;;;;;;5080243;28;20047;-60
2023/12/19 08:00:57;;;;;;;18.15;11.52;;;9.80;99.90;;;;;;5078739;28;20054;-59
2023/12/19 08:03:29;;;;;;;17.40;10.77;;;9.70;99.90;;;;;;5065952;28;20408;-59
2023/12/19 08:05:56;;;;;;;18.92;11.80;;;9.80;99.90;;;;;;5081687;28;20032;-60
2023/12/19 08:08:26;;;;;;;18.30;11.35;;;9.70;99.90;;;;;;5079993;28;20045;-60
2023/12/19 08:10:52;;;;;;;17.67;10.60;;;9.80;99.90;;;;;;5040853;28;20048;-59
2023/12/19 08:13:22;;;;;;;20.27;12.20;;;9.80;99.90;;;;;;5061168;28;20273;-60
2023/12/19 08:15:48;;;;;;;20.52;12.45;;;9.80;99.90;;;;;;5080773;28;20580;-60
2023/12/19 08:18:14;;;;;;;20.33;12.93;;;9.80;99.90;;;;;;5076570;28;20056;-59
2023/12/19 08:20:41;;;;;;;20.80;12.82;;;9.80;99.90;;;;;;5089962;28;20040;-59
2023/12/19 08:23:07;;;;;;;21.30;13.25;;;9.80;99.90;;;;;;5077384;28;20040;-60
2023/12/19 08:25:33;;;;;;;22.15;13.38;;;9.80;99.90;;;;;;5079206;28;20047;-59
2023/12/19 08:27:59;;;;;;;21.38;12.98;;;9.90;99.90;;;;;;5076701;28;20040;-59
2023/12/19 08:30:29;;;;;;;20.25;13.18;;;9.80;99.90;;;;;;5059176;28;20459;-59
2023/12/19 08:32:55;;;;;;;22.92;13.80;;;9.90;99.90;;;;;;5060526;28;20060;-59
2023/12/19 08:35:21;;;;;;;24.52;14.00;;;9.90;99.90;;;;;;5059782;28;20059;-59
2023/12/19 08:37:48;;;;;;;26.00;15.43;;;9.90;99.90;;;;;;5074867;28;20253;-59
2023/12/19 08:40:13;;;;;;;22.52;14.75;;;9.90;99.90;;;;;;5075082;28;20297;-59
2023/12/19 08:42:41;;;;;;;24.08;14.82;;;9.90;99.90;;;;;;5081612;28;20047;-60
2023/12/19 08:45:14;;;;;;;21.52;14.20;;;10.00;99.90;;;;;;5077421;28;20044;-59
2023/12/19 08:47:40;;;;;;;20.83;13.93;;;10.00;99.90;;;;;;5079531;28;20111;-59
2023/12/19 08:50:08;;;;;;;20.40;13.80;;;10.00;99.90;;;;;;5064472;28;20414;-59
2023/12/19 08:52:34;;;;;;;22.52;13.77;;;10.00;99.90;;;;;;5081940;28;20044;-59
2023/12/19 08:55:00;;;;;;;19.60;13.55;;;10.00;99.90;;;;;;5077260;28;20540;-59
2023/12/19 08:57:26;;;;;;;18.65;11.70;;;10.10;99.90;;;;;;5078874;28;20036;-60
2023/12/19 08:59:52;;;;;;;16.67;11.80;;;10.10;99.90;;;;;;5075709;28;20560;-59
2023/12/19 09:02:17;;;;;;;16.65;11.63;;;10.10;99.90;;;;;;5074787;28;20044;-60
2023/12/19 09:04:43;;;;;;;15.02;10.13;;;10.10;99.90;;;;;;5073947;28;20563;-60
2023/12/19 09:07:08;;;;;;;13.32;9.40;;;10.20;99.90;;;;;;5075239;28;20040;-60
2023/12/19 09:09:34;;;;;;;13.82;9.70;;;10.20;99.90;;;;;;5047491;28;20158;-59
2023/12/19 09:12:00;;;;;;;14.05;9.40;;;10.20;99.90;;;;;;5076335;28;20249;-59
2023/12/19 09:14:26;;;;;;;13.70;9.90;;;10.30;99.90;;;;;;5051346;28;20075;-60
2023/12/19 09:16:51;;;;;;;14.82;10.98;;;10.30;99.90;;;;;;5078715;28;20474;-60
2023/12/19 09:19:17;;;;;;;15.45;11.15;;;10.30;99.90;;;;;;5081328;28;20464;-60
2023/12/19 09:21:43;;;;;;;15.27;10.60;;;10.30;99.90;;;;;;5074780;28;20044;-60
2023/12/19 09:24:09;;;;;;;16.15;11.05;;;10.30;99.90;;;;;;5077136;28;20032;-60
2023/12/19 09:26:38;;;;;;;15.48;11.07;;;10.30;99.90;;;;;;5078385;28;20068;-60
2023/12/19 09:29:06;;;;;;;17.83;11.32;;;10.40;99.90;;;;;;5074561;28;20043;-60
2023/12/19 09:31:32;;;;;;;17.75;11.90;;;10.40;99.90;;;;;;5074027;28;20131;-60
2023/12/19 09:33:58;;;;;;;18.25;12.57;;;10.40;99.90;;;;;;5078453;28;20473;-60
2023/12/19 09:36:26;;;;;;;21.65;12.88;;;10.40;99.90;;;;;;5074900;28;20036;-60
2023/12/19 09:38:52;;;;;;;20.88;12.90;;;10.40;99.90;;;;;;5076910;28;20037;-60
2023/12/19 09:41:18;;;;;;;20.17;13.00;;;10.40;99.90;;;;;;5079921;28;20043;-60
2023/12/19 09:43:44;;;;;;;18.23;12.40;;;10.50;99.90;;;;;;5077990;28;20040;-61
2023/12/19 09:46:13;;;;;;;21.17;12.93;;;10.50;99.90;;;;;;5075072;28;20078;-60
2023/12/19 09:48:42;;;;;;;18.88;12.43;;;10.50;99.90;;;;;;5081114;28;20101;-60
2023/12/19 09:51:26;;;;;;;23.50;13.00;;;10.50;99.90;;;;;;5077526;28;20569;-59
2023/12/19 09:53:54;;;;;;;20.52;12.32;;;10.50;99.90;;;;;;5089306;27;20048;-60
2023/12/19 09:56:20;;;;;;;19.25;12.68;;;10.50;99.90;;;;;;5080165;28;20039;-60
2023/12/19 09:58:49;;;;;;;22.73;12.93;;;10.50;99.90;;;;;;5077747;28;20080;-60
2023/12/19 10:01:18;;;;;;;22.27;13.13;;;10.50;99.90;;;;;;5078367;28;20129;-60
2023/12/19 10:03:44;;;;;;;19.38;12.35;;;10.60;99.90;;;;;;5078445;28;20036;-60
2023/12/19 10:06:10;;;;;;;26.13;13.70;;;10.60;99.90;;;;;;5078019;28;20044;-60
2023/12/19 10:08:42;;;;;;;21.60;12.90;;;10.60;99.90;;;;;;5075265;28;20128;-60
2023/12/19 10:11:09;;;;;;;27.30;14.40;;;10.60;99.90;;;;;;5078685;28;20109;-61
2023/12/19 10:13:38;;;;;;;26.30;15.05;;;10.70;99.90;;;;;;5074734;28;20056;-60
2023/12/19 10:16:06;;;;;;;26.58;16.58;;;10.70;99.90;;;;;;5057931;28;20054;-62
2023/12/19 10:18:33;;;;;;;28.50;15.80;;;10.70;99.90;;;;;;5074752;28;20068;-61
2023/12/19 10:21:19;;;;;;;24.15;13.63;;;10.80;99.90;;;;;;5077458;28;20041;-60
2023/12/19 10:23:45;;;;;;;22.10;12.55;;;10.80;99.90;;;;;;5077663;28;20037;-61
2023/12/19 10:26:11;;;;;;;28.27;13.30;;;10.80;99.90;;;;;;5079643;28;20131;-61
2023/12/19 10:28:37;;;;;;;24.23;12.75;;;10.80;99.90;;;;;;5076569;28;20572;-61
2023/12/19 10:31:06;;;;;;;28.00;13.25;;;10.80;99.90;;;;;;5076369;28;20113;-61
2023/12/19 10:33:49;;;;;;;22.40;11.90;;;10.90;99.90;;;;;;5075032;28;20544;-61
2023/12/19 10:36:31;;;;;;;26.33;12.60;;;10.90;99.90;;;;;;5073869;28;20532;-60
2023/12/19 10:38:59;;;;;;;24.75;12.18;;;10.90;99.90;;;;;;5073382;28;20036;-61
2023/12/19 10:41:32;;;;;;;24.77;12.50;;;10.90;99.90;;;;;;5073890;28;20041;-61
2023/12/19 10:43:59;;;;;;;19.47;11.13;;;10.90;99.90;;;;;;5077450;28;20040;-61
2023/12/19 10:46:30;;;;;;;19.40;10.88;;;10.90;99.90;;;;;;5079839;28;20508;-61
2023/12/19 10:48:58;;;;;;;19.35;9.90;;;11.00;99.90;;;;;;5069676;28;20366;-60
2023/12/19 10:51:35;;;;;;;21.55;10.85;;;11.00;99.90;;;;;;5062389;28;20047;-60
2023/12/19 10:54:12;;;;;;;21.08;10.25;;;11.00;99.90;;;;;;5080384;28;20031;-60
2023/12/19 10:57:02;;;;;;;22.15;10.80;;;11.10;99.90;;;;;;5058850;28;20508;-60
2023/12/19 10:59:31;;;;;;;22.00;10.50;;;11.10;99.90;;;;;;5074423;28;20040;-60
2023/12/19 11:02:13;;;;;;;18.02;10.00;;;11.10;99.90;;;;;;5082810;28;20531;-60
2023/12/19 11:04:44;;;;;;;16.63;9.40;;;11.10;99.90;;;;;;5080245;28;20677;-60
2023/12/19 11:07:15;;;;;;;18.02;10.15;;;11.10;99.90;;;;;;5079958;28;20056;-61
2023/12/19 11:09:46;;;;;;;19.83;10.30;;;11.10;99.90;;;;;;5079739;28;20224;-60
2023/12/19 11:12:12;;;;;;;19.05;10.52;;;11.10;99.90;;;;;;5081222;28;20109;-61
2023/12/19 11:14:40;;;;;;;17.83;10.48;;;11.10;99.90;;;;;;5075409;28;20036;-61
2023/12/19 11:17:21;;;;;;;17.83;9.32;;;11.10;99.90;;;;;;5081669;28;20111;-60
2023/12/19 11:19:54;;;;;;;18.02;10.45;;;11.20;99.90;;;;;;5081410;28;20299;-60
2023/12/19 11:22:32;;;;;;;16.27;9.85;;;11.20;99.90;;;;;;5075032;28;20409;-61
2023/12/19 11:25:13;;;;;;;16.42;9.77;;;11.20;99.90;;;;;;5077570;28;20044;-61
2023/12/19 11:28:00;;;;;;;17.73;10.85;;;11.20;99.90;;;;;;5075596;28;20375;-61
2023/12/19 11:30:35;;;;;;;17.83;10.45;;;11.20;99.90;;;;;;5077747;28;20488;-61
2023/12/19 11:33:01;;;;;;;16.48;10.68;;;11.20;99.90;;;;;;5079942;28;20496;-60
2023/12/19 11:35:29;;;;;;;16.63;11.20;;;11.20;99.90;;;;;;5080630;28;20147;-61
2023/12/19 11:38:13;;;;;;;17.67;10.68;;;11.20;99.90;;;;;;5078127;28;20085;-61
2023/12/19 11:40:45;;;;;;;19.88;11.70;;;11.20;99.90;;;;;;5078723;28;20040;-61
2023/12/19 11:43:26;;;;;;;16.80;10.85;;;11.20;99.90;;;;;;5077623;28;20044;-61
2023/12/19 11:45:53;;;;;;;20.38;12.43;;;11.20;99.90;;;;;;5078245;28;20369;-61
2023/12/19 11:48:38;;;;;;;18.20;11.73;;;11.20;99.90;;;;;;5077548;28;20043;-61
2023/12/19 11:51:07;;;;;;;21.15;12.90;;;11.20;99.90;;;;;;5075266;28;20120;-61
2023/12/19 11:53:34;;;;;;;21.75;12.25;;;11.20;99.90;;;;;;5079836;28;20347;-61
2023/12/19 11:56:11;;;;;;;19.25;11.48;;;11.20;99.90;;;;;;5075564;28;20401;-61
2023/12/19 11:58:47;;;;;;;20.40;12.80;;;11.20;99.90;;;;;;5077233;28;20040;-61
2023/12/19 12:01:14;;;;;;;21.17;13.13;;;11.20;99.90;;;;;;5079588;28;20040;-61
2023/12/19 12:03:40;;;;;;;20.50;12.23;;;11.20;99.90;;;;;;5077953;28;20051;-61
2023/12/19 12:06:09;;;;;;;19.65;11.35;;;11.20;99.90;;;;;;5081855;28;20047;-61
2023/12/19 12:08:35;;;;;;;18.55;11.07;;;11.20;99.90;;;;;;5080669;28;20052;-61
2023/12/19 12:11:04;;;;;;;19.45;10.88;;;11.20;99.90;;;;;;5075565;28;20039;-61
2023/12/19 12:13:33;;;;;;;16.40;10.20;;;11.20;99.90;;;;;;5077926;28;20084;-61
2023/12/19 12:15:59;;;;;;;14.55;9.27;;;11.20;99.90;;;;;;5082408;28;20274;-61
2023/12/19 12:18:27;;;;;;;14.20;8.00;;;11.20;99.90;;;;;;5074584;28;20122;-61
2023/12/19 12:21:08;;;;;;;9.10;5.13;;;11.20;99.90;;;;;;5074957;28;20040;-60
2023/12/19 12:23:35;;;;;;;7.90;4.43;;;11.20;99.90;;;;;;5063730;28;20105;-61
2023/12/19 12:26:01;;;;;;;5.20;3.38;;;11.20;99.90;;;;;;5072719;28;20087;-60
2023/12/19 12:28:27;;;;;;;6.18;3.00;;;11.20;99.90;;;;;;5060140;28;20488;-61
2023/12/19 12:30:57;;;;;;;5.43;2.80;;;11.30;99.90;;;;;;5077711;28;20427;-61
2023/12/19 12:33:31;;;;;;;3.53;1.80;;;11.20;99.90;;;;;;5077438;22;20051;-62
2023/12/19 12:35:57;;;;;;;;;;;11.20;99.90;;;;;;5006533;28;20037;-62
2023/12/19 12:38:24;;;;;;;3.85;1.65;;;11.20;99.90;;;;;;5023618;28;20392;-61
2023/12/19 12:40:54;;;;;;;3.72;1.90;;;11.10;99.90;;;;;;5036889;28;20041;-61
2023/12/19 12:43:39;;;;;;;2.65;1.50;;;11.10;99.90;;;;;;5020538;28;20692;-61
2023/12/19 12:46:16;;;;;;;2.53;1.40;;;11.10;99.90;;;;;;5017993;28;20055;-61
2023/12/19 12:49:01;;;;;;;2.10;1.35;;;11.10;99.90;;;;;;5019240;28;20045;-61
2023/12/19 12:51:28;;;;;;;3.85;1.60;;;11.00;99.90;;;;;;5017481;28;20286;-61
2023/12/19 12:53:59;;;;;;;4.07;1.85;;;11.10;99.90;;;;;;5016627;28;20636;-61
2023/12/19 12:56:32;;;;;;;6.03;1.80;;;11.00;99.90;;;;;;5003268;28;20494;-61
2023/12/19 12:59:12;;;;;;;3.20;1.60;;;11.00;99.90;;;;;;5019377;28;20049;-61
2023/12/19 13:01:44;;;;;;;3.78;1.60;;;11.00;99.90;;;;;;5011894;28;20144;-61
2023/12/19 13:04:11;;;;;;;4.53;2.03;;;11.00;99.90;;;;;;5013246;28;20081;-61
2023/12/19 13:06:43;;;;;;;4.80;2.80;;;11.00;99.90;;;;;;5020405;28;20053;-61
2023/12/19 13:09:13;;;;;;;5.47;1.98;;;11.00;99.90;;;;;;5023385;28;20068;-61
2023/12/19 13:11:47;;;;;;;6.20;2.40;;;10.90;99.90;;;;;;5020468;28;20049;-61
2023/12/19 13:14:15;;;;;;;6.35;3.40;;;11.00;99.90;;;;;;5021418;28;20073;-61
2023/12/19 13:16:44;;;;;;;7.35;2.72;;;10.90;99.90;;;;;;5020523;28;20560;-61
2023/12/19 13:19:10;;;;;;;6.78;3.97;;;10.90;99.90;;;;;;5021780;28;20037;-61
2023/12/19 13:21:36;;;;;;;5.45;2.63;;;10.90;99.90;;;;;;5019367;28;20137;-62
2023/12/19 13:24:01;;;;;;;6.88;3.92;;;11.00;99.90;;;;;;5002176;28;20052;-61
2023/12/19 13:26:32;;;;;;;5.68;2.35;;;11.00;99.90;;;;;;4987393;28;20043;-61
2023/12/19 13:28:59;;;;;;;6.82;3.63;;;10.90;99.90;;;;;;4997966;28;20561;-61
2023/12/19 13:31:26;;;;;;;5.72;2.80;;;11.00;99.90;;;;;;5016670;28;20049;-61
2023/12/19 13:33:52;;;;;;;8.85;4.43;;;10.90;99.90;;;;;;5017188;28;20045;-62
2023/12/19 13:36:19;;;;;;;5.50;3.20;;;10.90;99.90;;;;;;5001950;28;20046;-61
2023/12/19 13:38:46;;;;;;;6.63;4.32;;;10.90;99.90;;;;;;5021652;28;20045;-61
2023/12/19 13:41:13;;;;;;;6.25;3.85;;;10.90;99.90;;;;;;5004068;28;20040;-62
2023/12/19 13:43:38;;;;;;;4.63;2.08;;;10.80;99.90;;;;;;5019031;28;20385;-61
2023/12/19 13:46:04;;;;;;;3.85;2.00;;;10.80;99.90;;;;;;5013599;28;20457;-61
2023/12/19 13:48:30;;;;;;;3.58;1.52;;;10.80;99.90;;;;;;5018126;28;20041;-61
2023/12/19 13:50:56;;;;;;;3.13;1.70;;;10.80;99.90;;;;;;5038502;28;20506;-61
2023/12/19 13:53:22;;;;;;;5.30;1.52;;;10.80;99.90;;;;;;5018060;28;20051;-61
2023/12/19 13:55:48;;;;;;;3.70;1.73;;;10.80;99.90;;;;;;5018933;28;20382;-61
2023/12/19 13:58:14;;;;;;;3.45;2.30;;;10.80;99.90;;;;;;5020350;28;20103;-61
2023/12/19 14:00:40;;;;;;;3.88;2.10;;;10.80;99.90;;;;;;5019862;28;20045;-61
2023/12/19 14:03:06;;;;;;;5.78;2.20;;;10.80;99.90;;;;;;5020828;28;20340;-61
2023/12/19 14:05:32;;;;;;;3.30;2.03;;;10.80;99.90;;;;;;4999072;28;20533;-61
2023/12/19 14:07:59;;;;;;;5.43;2.53;;;10.80;99.90;;;;;;5023654;28;20052;-61
2023/12/19 14:10:25;;;;;;;19.25;7.70;;;10.80;99.90;;;;;;5019460;28;20508;-61
2023/12/19 14:12:51;;;;;;;11.13;5.45;;;10.80;99.90;;;;;;5018677;28;20041;-61
2023/12/19 14:15:19;;;;;;;16.60;8.02;;;10.80;99.90;;;;;;5018001;28;20042;-61
2023/12/19 14:17:45;;;;;;;13.10;7.40;;;10.80;99.90;;;;;;5003679;28;20136;-61
2023/12/19 14:20:14;;;;;;;8.07;5.07;;;10.80;99.90;;;;;;5003557;28;20549;-62
2023/12/19 14:22:40;;;;;;;5.05;3.03;;;10.80;99.90;;;;;;4998623;28;20057;-61
2023/12/19 14:25:08;;;;;;;7.45;5.03;;;10.80;99.90;;;;;;5021866;28;20033;-61
2023/12/19 14:27:35;;;;;;;5.85;3.05;;;10.80;99.90;;;;;;5000961;28;20051;-61
2023/12/19 14:30:01;;;;;;;10.20;4.07;;;10.80;99.90;;;;;;5017579;28;20135;-61
2023/12/19 14:32:27;;;;;;;13.45;5.53;;;10.80;99.90;;;;;;5020946;28;20132;-62
2023/12/19 14:34:56;;;;;;;12.00;5.25;;;10.80;99.90;;;;;;5008105;28;20037;-61
2023/12/19 14:37:22;;;;;;;9.00;5.40;;;10.80;99.90;;;;;;5020849;28;20476;-61
2023/12/19 14:39:49;;;;;;;10.27;5.22;;;10.70;99.90;;;;;;5024362;28;20072;-61
2023/12/19 14:42:15;;;;;;;9.20;4.72;;;10.80;99.90;;;;;;5024309;28;20052;-61
2023/12/19 14:44:40;;;;;;;11.98;4.47;;;10.80;99.90;;;;;;5004650;28;20033;-61
2023/12/19 14:47:06;;;;;;;10.02;5.43;;;10.70;99.90;;;;;;4990396;28;20045;-62
2023/12/19 14:49:32;;;;;;;11.45;4.75;;;10.70;99.90;;;;;;5018488;28;20034;-61
2023/12/19 14:51:58;;;;;;;12.85;6.43;;;10.80;99.90;;;;;;5039333;28;20451;-61
2023/12/19 14:54:24;;;;;;;19.30;11.35;;;10.70;99.90;;;;;;5022365;28;20543;-61
2023/12/19 14:56:50;;;;;;;12.07;6.85;;;10.70;99.90;;;;;;5024823;28;20037;-61
2023/12/19 14:59:15;;;;;;;15.25;8.15;;;10.70;99.90;;;;;;5022649;28;20045;-61
2023/12/19 15:01:44;;;;;;;12.10;7.45;;;10.70;99.90;;;;;;5002465;28;20099;-61
2023/12/19 15:04:09;;;;;;;14.45;8.27;;;10.70;99.90;;;;;;5022120;28;20053;-61